createdAt,value
2017-07-01T00:00:47.034Z,0
2017-07-01T00:01:47.393Z,0
2017-07-01T00:02:47.112Z,0
2017-07-01T00:03:47.161Z,0
2017-07-01T00:04:47.201Z,0
2017-07-01T00:05:47.231Z,0
2017-07-01T00:06:47.587Z,0
2017-07-01T00:07:47.629Z,0
2017-07-01T00:08:47.352Z,0
2017-07-01T00:09:47.691Z,0
2017-07-01T00:10:47.744Z,0
2017-07-01T00:11:47.466Z,0
2017-07-01T00:12:47.497Z,0
2017-07-01T00:13:47.538Z,0
2017-07-01T00:14:47.898Z,0
2017-07-01T00:15:47.625Z,0
2017-07-01T00:16:47.664Z,0
2017-07-01T00:17:48.306Z,0
2017-07-01T00:18:47.742Z,0
2017-07-01T00:19:48.383Z,0
2017-07-01T00:20:48.126Z,0
2017-07-01T00:21:48.484Z,0
2017-07-01T00:22:47.882Z,0
2017-07-01T00:23:48.237Z,0
2017-07-01T00:24:48.882Z,0
2017-07-01T00:25:48.315Z,0
2017-07-01T00:26:48.042Z,0
2017-07-01T00:27:48.702Z,0
2017-07-01T00:28:48.127Z,0
2017-07-01T00:29:48.185Z,0
2017-07-01T00:30:48.194Z,0
2017-07-01T00:31:48.227Z,0
2017-07-01T00:32:48.581Z,0
2017-07-01T00:33:48.918Z,0
2017-07-01T00:34:48.663Z,0
2017-07-01T00:35:49.037Z,0
2017-07-01T00:36:48.436Z,0
2017-07-01T00:37:48.780Z,0
2017-07-01T00:38:49.121Z,0
2017-07-01T00:39:48.537Z,0
2017-07-01T00:40:48.587Z,0
2017-07-01T00:41:48.932Z,0
2017-07-01T00:42:48.648Z,0
2017-07-01T00:43:48.696Z,0
2017-07-01T00:44:49.042Z,0
2017-07-01T00:45:49.082Z,0
2017-07-01T00:46:48.826Z,0
2017-07-01T00:47:48.856Z,0
2017-07-01T00:48:48.882Z,0
2017-07-01T00:49:48.922Z,0
2017-07-01T00:50:48.958Z,0
2017-07-01T00:51:49.307Z,0
2017-07-01T00:52:49.649Z,0
2017-07-01T00:53:49.994Z,0
2017-07-01T00:54:49.117Z,0
2017-07-01T00:55:49.453Z,0
2017-07-01T00:56:49.505Z,0
2017-07-01T00:57:49.542Z,0
2017-07-01T00:58:49.258Z,0
2017-07-01T00:59:49.930Z,0
2017-07-01T01:00:49.337Z,0
2017-07-01T01:01:49.700Z,0
2017-07-01T01:02:50.042Z,0
2017-07-01T01:03:50.170Z,0
2017-07-01T01:04:50.127Z,0
2017-07-01T01:05:49.526Z,0
2017-07-01T01:06:49.574Z,0
2017-07-01T01:07:50.235Z,0
2017-07-01T01:08:50.269Z,0
2017-07-01T01:09:50.000Z,0
2017-07-01T01:10:49.719Z,0
2017-07-01T01:11:50.080Z,0
2017-07-01T01:12:50.135Z,0
2017-07-01T01:13:50.497Z,0
2017-07-01T01:14:50.205Z,0
2017-07-01T01:15:50.231Z,0
2017-07-01T01:16:50.273Z,0
2017-07-01T01:17:49.987Z,0
2017-07-01T01:18:50.038Z,0
2017-07-01T01:19:50.386Z,0
2017-07-01T01:20:50.112Z,0
2017-07-01T01:21:50.467Z,0
2017-07-01T01:22:50.492Z,0
2017-07-01T01:23:51.153Z,0
2017-07-01T01:24:50.252Z,0
2017-07-01T01:25:50.289Z,0
2017-07-01T01:26:50.652Z,0
2017-07-01T01:27:50.372Z,0
2017-07-01T01:28:50.417Z,0
2017-07-01T01:29:51.064Z,0
2017-07-01T01:30:50.804Z,0
2017-07-01T01:31:50.843Z,0
2017-07-01T01:32:50.559Z,0
2017-07-01T01:33:50.918Z,0
2017-07-01T01:34:50.640Z,0
2017-07-01T01:35:50.688Z,0
2017-07-01T01:36:51.028Z,0
2017-07-01T01:37:50.761Z,0
2017-07-01T01:38:51.103Z,0
2017-07-01T01:39:50.825Z,0
2017-07-01T01:40:50.882Z,0
2017-07-01T01:41:50.912Z,0
2017-07-01T01:42:50.950Z,0
2017-07-01T01:43:50.977Z,0
2017-07-01T01:44:51.034Z,0
2017-07-01T01:45:51.363Z,0
2017-07-01T01:46:51.105Z,0
2017-07-01T01:47:51.130Z,0
2017-07-01T01:48:51.817Z,0
2017-07-01T01:49:51.823Z,0
2017-07-01T01:50:51.255Z,0
2017-07-01T01:51:51.914Z,0
2017-07-01T01:52:51.634Z,0
2017-07-01T01:53:51.363Z,0
2017-07-01T01:54:51.740Z,0
2017-07-01T01:55:51.444Z,0
2017-07-01T01:56:51.477Z,0
2017-07-01T01:57:52.452Z,0
2017-07-01T01:58:52.185Z,0
2017-07-01T01:59:52.535Z,0
2017-07-01T02:00:51.659Z,0
2017-07-01T02:01:51.984Z,0
2017-07-01T02:02:51.716Z,0
2017-07-01T02:03:52.364Z,0
2017-07-01T02:04:52.101Z,0
2017-07-01T02:05:51.851Z,0
2017-07-01T02:06:52.177Z,0
2017-07-01T02:07:52.833Z,0
2017-07-01T02:08:52.566Z,0
2017-07-01T02:09:51.971Z,0
2017-07-01T02:10:52.037Z,0
2017-07-01T02:11:52.050Z,0
2017-07-01T02:12:52.403Z,0
2017-07-01T02:13:52.124Z,4
2017-07-01T02:14:52.161Z,4
2017-07-01T02:15:52.516Z,4
2017-07-01T02:16:52.546Z,0
2017-07-01T02:17:52.294Z,0
2017-07-01T02:18:52.634Z,4
2017-07-01T02:19:52.673Z,4
2017-07-01T02:20:52.403Z,4
2017-07-01T02:21:52.754Z,4
2017-07-01T02:22:52.515Z,8
2017-07-01T02:23:53.136Z,4
2017-07-01T02:24:52.850Z,8
2017-07-01T02:25:52.888Z,8
2017-07-01T02:26:52.634Z,8
2017-07-01T02:27:52.976Z,8
2017-07-01T02:28:52.695Z,8
2017-07-01T02:29:53.056Z,12
2017-07-01T02:30:52.783Z,16
2017-07-01T02:31:53.423Z,16
2017-07-01T02:32:53.158Z,16
2017-07-01T02:33:52.898Z,20
2017-07-01T02:34:53.538Z,20
2017-07-01T02:35:52.961Z,24
2017-07-01T02:36:53.046Z,28
2017-07-01T02:37:53.048Z,28
2017-07-01T02:38:53.705Z,32
2017-07-01T02:39:53.423Z,36
2017-07-01T02:40:53.463Z,40
2017-07-01T02:41:53.191Z,44
2017-07-01T02:42:53.551Z,48
2017-07-01T02:43:53.582Z,52
2017-07-01T02:44:53.630Z,56
2017-07-01T02:45:53.662Z,64
2017-07-01T02:46:53.399Z,72
2017-07-01T02:47:53.744Z,80
2017-07-01T02:48:53.468Z,88
2017-07-01T02:49:53.509Z,96
2017-07-01T02:50:53.538Z,104
2017-07-01T02:51:54.202Z,108
2017-07-01T02:52:53.617Z,116
2017-07-01T02:53:54.270Z,124
2017-07-01T02:54:53.709Z,132
2017-07-01T02:55:53.728Z,140
2017-07-01T02:56:54.073Z,152
2017-07-01T02:57:54.111Z,160
2017-07-01T02:58:54.272Z,176
2017-07-01T02:59:54.196Z,188
2017-07-01T03:00:54.546Z,204
2017-07-01T03:01:53.971Z,216
2017-07-01T03:02:54.001Z,236
2017-07-01T03:03:54.354Z,256
2017-07-01T03:04:54.382Z,272
2017-07-01T03:05:54.431Z,292
2017-07-01T03:06:54.468Z,308
2017-07-01T03:07:54.497Z,328
2017-07-01T03:08:54.851Z,348
2017-07-01T03:09:54.896Z,372
2017-07-01T03:10:54.306Z,392
2017-07-01T03:11:54.342Z,416
2017-07-01T03:12:54.691Z,436
2017-07-01T03:13:54.742Z,456
2017-07-01T03:14:54.776Z,476
2017-07-01T03:15:54.498Z,492
2017-07-01T03:16:54.859Z,516
2017-07-01T03:17:54.897Z,532
2017-07-01T03:18:54.620Z,556
2017-07-01T03:19:54.661Z,580
2017-07-01T03:20:55.013Z,596
2017-07-01T03:21:55.042Z,616
2017-07-01T03:22:54.779Z,636
2017-07-01T03:23:55.121Z,652
2017-07-01T03:24:55.152Z,672
2017-07-01T03:25:54.898Z,688
2017-07-01T03:26:55.223Z,708
2017-07-01T03:27:54.958Z,728
2017-07-01T03:28:55.317Z,744
2017-07-01T03:29:55.035Z,764
2017-07-01T03:30:55.381Z,780
2017-07-01T03:31:55.346Z,800
2017-07-01T03:32:55.158Z,816
2017-07-01T03:33:55.506Z,832
2017-07-01T03:34:55.852Z,848
2017-07-01T03:35:55.590Z,868
2017-07-01T03:36:55.344Z,884
2017-07-01T03:37:55.655Z,908
2017-07-01T03:38:55.392Z,924
2017-07-01T03:39:55.734Z,944
2017-07-01T03:40:55.763Z,968
2017-07-01T03:41:55.508Z,988
2017-07-01T03:42:55.882Z,1008
2017-07-01T03:43:55.582Z,1032
2017-07-01T03:44:56.241Z,1048
2017-07-01T03:45:55.955Z,1076
2017-07-01T03:46:55.700Z,1108
2017-07-01T03:47:55.738Z,1148
2017-07-01T03:48:56.080Z,1156
2017-07-01T03:49:55.816Z,1172
2017-07-01T03:50:56.162Z,1212
2017-07-01T03:51:55.889Z,1256
2017-07-01T03:52:55.917Z,1308
2017-07-01T03:53:56.579Z,1360
2017-07-01T03:54:56.004Z,1420
2017-07-01T03:55:56.048Z,1504
2017-07-01T03:56:56.130Z,1632
2017-07-01T03:57:56.418Z,1744
2017-07-01T03:58:56.158Z,1840
2017-07-01T03:59:56.186Z,1932
2017-07-01T04:00:56.547Z,2024
2017-07-01T04:01:56.323Z,2104
2017-07-01T04:02:56.927Z,2204
2017-07-01T04:03:56.343Z,2320
2017-07-01T04:04:56.574Z,2436
2017-07-01T04:05:56.726Z,2568
2017-07-01T04:06:56.456Z,2696
2017-07-01T04:07:56.534Z,2852
2017-07-01T04:08:56.559Z,3028
2017-07-01T04:09:56.568Z,3264
2017-07-01T04:10:56.926Z,3572
2017-07-01T04:11:56.710Z,3880
2017-07-01T04:12:56.711Z,3924
2017-07-01T04:13:56.725Z,3868
2017-07-01T04:14:56.775Z,3956
2017-07-01T04:15:57.418Z,4264
2017-07-01T04:16:57.151Z,4788
2017-07-01T04:17:56.879Z,5752
2017-07-01T04:18:57.229Z,6604
2017-07-01T04:19:57.589Z,7580
2017-07-01T04:20:57.318Z,8252
2017-07-01T04:21:57.672Z,8052
2017-07-01T04:22:57.090Z,7456
2017-07-01T04:23:57.746Z,6512
2017-07-01T04:24:57.463Z,6476
2017-07-01T04:25:57.516Z,6248
2017-07-01T04:26:57.557Z,6040
2017-07-01T04:27:57.582Z,5240
2017-07-01T04:28:57.317Z,4552
2017-07-01T04:29:57.677Z,4340
2017-07-01T04:30:57.400Z,4304
2017-07-01T04:31:57.438Z,4272
2017-07-01T04:32:57.797Z,4264
2017-07-01T04:33:58.129Z,4272
2017-07-01T04:34:57.876Z,4284
2017-07-01T04:35:57.593Z,4328
2017-07-01T04:36:57.949Z,4332
2017-07-01T04:37:58.306Z,4244
2017-07-01T04:38:57.724Z,4172
2017-07-01T04:39:57.761Z,4156
2017-07-01T04:40:57.791Z,4176
2017-07-01T04:41:57.837Z,4240
2017-07-01T04:42:57.868Z,4284
2017-07-01T04:43:58.215Z,4292
2017-07-01T04:44:57.965Z,4332
2017-07-01T04:45:58.304Z,4356
2017-07-01T04:46:58.659Z,4408
2017-07-01T04:47:58.380Z,4460
2017-07-01T04:48:58.425Z,4584
2017-07-01T04:49:58.772Z,4792
2017-07-01T04:50:58.240Z,4964
2017-07-01T04:51:58.240Z,5092
2017-07-01T04:52:58.285Z,5376
2017-07-01T04:53:58.615Z,5644
2017-07-01T04:54:58.958Z,5856
2017-07-01T04:55:58.705Z,5920
2017-07-01T04:56:58.727Z,5984
2017-07-01T04:57:58.781Z,6112
2017-07-01T04:58:58.822Z,6224
2017-07-01T04:59:58.855Z,6340
2017-07-01T05:00:58.576Z,6612
2017-07-01T05:01:58.631Z,6608
2017-07-01T05:02:59.286Z,6816
2017-07-01T05:03:59.021Z,7092
2017-07-01T05:04:58.745Z,6940
2017-07-01T05:05:58.779Z,7200
2017-07-01T05:06:59.450Z,7320
2017-07-01T05:07:58.853Z,7336
2017-07-01T05:08:58.902Z,7380
2017-07-01T05:09:59.253Z,7560
2017-07-01T05:10:59.298Z,7656
2017-07-01T05:11:59.339Z,7732
2017-07-01T05:12:59.364Z,8000
2017-07-01T05:13:59.418Z,8084
2017-07-01T05:14:59.130Z,8648
2017-07-01T05:15:59.183Z,9136
2017-07-01T05:16:59.223Z,8664
2017-07-01T05:17:59.248Z,8476
2017-07-01T05:18:59.306Z,8468
2017-07-01T05:19:59.649Z,8556
2017-07-01T05:20:59.710Z,8672
2017-07-01T05:22:00.038Z,8896
2017-07-01T05:22:59.757Z,9000
2017-07-01T05:23:59.497Z,9092
2017-07-01T05:24:59.541Z,9488
2017-07-01T05:25:59.570Z,9104
2017-07-01T05:26:59.612Z,9332
2017-07-01T05:27:59.959Z,9452
2017-07-01T05:28:59.814Z,9548
2017-07-01T05:30:00.347Z,9716
2017-07-01T05:31:00.091Z,9896
2017-07-01T05:32:00.117Z,9868
2017-07-01T05:33:00.174Z,9948
2017-07-01T05:33:59.900Z,10132
2017-07-01T05:35:00.236Z,10220
2017-07-01T05:35:59.987Z,10452
2017-07-01T05:37:00.025Z,10584
2017-07-01T05:38:00.371Z,11096
2017-07-01T05:39:00.098Z,11364
2017-07-01T05:40:00.444Z,14012
2017-07-01T05:41:00.175Z,17152
2017-07-01T05:42:00.212Z,19488
2017-07-01T05:43:00.577Z,21504
2017-07-01T05:44:00.605Z,22304
2017-07-01T05:45:00.962Z,26496
2017-07-01T05:46:00.682Z,27328
2017-07-01T05:47:00.743Z,26208
2017-07-01T05:48:00.768Z,26016
2017-07-01T05:49:00.820Z,22112
2017-07-01T05:50:00.540Z,20736
2017-07-01T05:51:00.595Z,27104
2017-07-01T05:52:00.934Z,31776
2017-07-01T05:53:01.304Z,32000
2017-07-01T05:54:00.721Z,34112
2017-07-01T05:55:00.768Z,36096
2017-07-01T05:56:00.806Z,39616
2017-07-01T05:57:00.843Z,42208
2017-07-01T05:58:01.192Z,43776
2017-07-01T05:59:01.562Z,42624
2017-07-01T06:00:01.285Z,43296
2017-07-01T06:01:01.033Z,42240
2017-07-01T06:02:01.448Z,37504
2017-07-01T06:03:01.742Z,32256
2017-07-01T06:04:01.167Z,30240
2017-07-01T06:05:01.507Z,25600
2017-07-01T06:06:01.259Z,22656
2017-07-01T06:07:01.291Z,22048
2017-07-01T06:08:01.351Z,27104
2017-07-01T06:09:02.021Z,39328
2017-07-01T06:10:01.755Z,25216
2017-07-01T06:11:02.413Z,26880
2017-07-01T06:12:01.531Z,31488
2017-07-01T06:13:02.186Z,25280
2017-07-01T06:14:02.236Z,27104
2017-07-01T06:15:01.672Z,61632
2017-07-01T06:16:01.715Z,61504
2017-07-01T06:17:02.058Z,29504
2017-07-01T06:18:01.849Z,30912
2017-07-01T06:19:01.854Z,24128
2017-07-01T06:20:01.891Z,33408
2017-07-01T06:21:02.252Z,27072
2017-07-01T06:22:02.006Z,22912
2017-07-01T06:23:02.022Z,27904
2017-07-01T06:24:02.697Z,29408
2017-07-01T06:25:02.431Z,30656
2017-07-01T06:26:02.471Z,26848
2017-07-01T06:27:02.527Z,20864
2017-07-01T06:28:02.264Z,26144
2017-07-01T06:29:02.311Z,32064
2017-07-01T06:30:02.661Z,45760
2017-07-01T06:31:02.727Z,53696
2017-07-01T06:32:02.435Z,47424
2017-07-01T06:33:02.798Z,35008
2017-07-01T06:34:02.846Z,42912
2017-07-01T06:35:02.572Z,49952
2017-07-01T06:36:02.951Z,30208
2017-07-01T06:37:02.981Z,28864
2017-07-01T06:38:03.041Z,27104
2017-07-01T06:39:03.083Z,27424
2017-07-01T06:40:03.746Z,26272
2017-07-01T06:41:03.208Z,22656
2017-07-01T06:42:03.526Z,23552
2017-07-01T06:43:03.255Z,23904
2017-07-01T06:44:03.616Z,27712
2017-07-01T06:45:03.362Z,21440
2017-07-01T06:46:03.093Z,19552
2017-07-01T06:47:03.140Z,18784
2017-07-01T06:48:03.482Z,16512
2017-07-01T06:49:03.237Z,16180
2017-07-01T06:50:03.273Z,15904
2017-07-01T06:51:03.655Z,16192
2017-07-01T06:52:03.367Z,16832
2017-07-01T06:53:04.018Z,17024
2017-07-01T06:54:04.065Z,16392
2017-07-01T06:55:03.497Z,14908
2017-07-01T06:56:03.551Z,14340
2017-07-01T06:57:03.900Z,13592
2017-07-01T06:58:04.251Z,13452
2017-07-01T06:59:03.902Z,13568
2017-07-01T07:00:03.716Z,13992
2017-07-01T07:01:04.387Z,14956
2017-07-01T07:02:04.433Z,16608
2017-07-01T07:03:04.168Z,18336
2017-07-01T07:04:04.199Z,22464
2017-07-01T07:05:04.555Z,22816
2017-07-01T07:06:03.978Z,23264
2017-07-01T07:07:04.328Z,26016
2017-07-01T07:08:04.382Z,23360
2017-07-01T07:09:04.101Z,23008
2017-07-01T07:10:04.464Z,24384
2017-07-01T07:11:04.210Z,22624
2017-07-01T07:12:04.253Z,22144
2017-07-01T07:13:04.292Z,22912
2017-07-01T07:14:04.634Z,21344
2017-07-01T07:15:04.435Z,20672
2017-07-01T07:16:04.715Z,20640
2017-07-01T07:17:04.465Z,20864
2017-07-01T07:18:04.498Z,21824
2017-07-01T07:19:04.555Z,22368
2017-07-01T07:20:04.915Z,23520
2017-07-01T07:21:04.626Z,25152
2017-07-01T07:22:05.287Z,27200
2017-07-01T07:23:04.732Z,28320
2017-07-01T07:24:04.760Z,30176
2017-07-01T07:25:04.810Z,29280
2017-07-01T07:26:04.855Z,27648
2017-07-01T07:27:04.891Z,30144
2017-07-01T07:28:04.933Z,31200
2017-07-01T07:29:05.021Z,31584
2017-07-01T07:30:05.352Z,29600
2017-07-01T07:31:05.373Z,30144
2017-07-01T07:32:05.424Z,28192
2017-07-01T07:33:05.477Z,29920
2017-07-01T07:34:05.200Z,29280
2017-07-01T07:35:05.256Z,29440
2017-07-01T07:36:05.326Z,27360
2017-07-01T07:37:05.672Z,29184
2017-07-01T07:38:05.377Z,42496
2017-07-01T07:39:05.727Z,31872
2017-07-01T07:40:05.784Z,34080
2017-07-01T07:41:05.827Z,38336
2017-07-01T07:42:05.560Z,31264
2017-07-01T07:43:05.934Z,28608
2017-07-01T07:44:05.642Z,36928
2017-07-01T07:45:05.995Z,36384
2017-07-01T07:46:06.366Z,64224
2017-07-01T07:47:05.785Z,63008
2017-07-01T07:48:05.818Z,54048
2017-07-01T07:49:06.194Z,42912
2017-07-01T07:50:06.229Z,43264
2017-07-01T07:51:06.590Z,35968
2017-07-01T07:52:06.313Z,34368
2017-07-01T07:53:06.686Z,36704
2017-07-01T07:54:06.418Z,46240
2017-07-01T07:55:06.145Z,39872
2017-07-01T07:56:06.856Z,41632
2017-07-01T07:57:06.256Z,40192
2017-07-01T07:58:06.913Z,51104
2017-07-01T07:59:06.660Z,52704
2017-07-01T08:00:06.377Z,67776
2017-07-01T08:01:07.053Z,47776
2017-07-01T08:02:07.106Z,55840
2017-07-01T08:03:06.832Z,56864
2017-07-01T08:04:06.604Z,72480
2017-07-01T08:05:06.936Z,36192
2017-07-01T08:06:06.984Z,48736
2017-07-01T08:07:07.055Z,45792
2017-07-01T08:08:06.758Z,34048
2017-07-01T08:09:07.124Z,98944
2017-07-01T08:10:07.482Z,32032
2017-07-01T08:11:06.911Z,29216
2017-07-01T08:12:07.270Z,29632
2017-07-01T08:13:07.030Z,28608
2017-07-01T08:14:07.046Z,26208
2017-07-01T08:15:07.113Z,26272
2017-07-01T08:16:07.155Z,26240
2017-07-01T08:17:07.499Z,26080
2017-07-01T08:18:07.557Z,31456
2017-07-01T08:19:07.589Z,25728
2017-07-01T08:20:07.335Z,28992
2017-07-01T08:21:08.022Z,28096
2017-07-01T08:22:08.051Z,32960
2017-07-01T08:23:07.466Z,31456
2017-07-01T08:24:07.521Z,25696
2017-07-01T08:25:07.879Z,26528
2017-07-01T08:26:07.921Z,29920
2017-07-01T08:27:07.664Z,23520
2017-07-01T08:28:08.038Z,22496
2017-07-01T08:29:08.392Z,21664
2017-07-01T08:30:08.112Z,21408
2017-07-01T08:31:08.175Z,22336
2017-07-01T08:32:08.202Z,46144
2017-07-01T08:33:08.233Z,26912
2017-07-01T08:34:08.602Z,23744
2017-07-01T08:35:08.326Z,37696
2017-07-01T08:36:08.694Z,24096
2017-07-01T08:37:08.430Z,19904
2017-07-01T08:38:08.154Z,19616
2017-07-01T08:39:08.203Z,19296
2017-07-01T08:40:08.267Z,19520
2017-07-01T08:41:08.609Z,20576
2017-07-01T08:42:08.655Z,20800
2017-07-01T08:43:08.393Z,21152
2017-07-01T08:44:08.421Z,20992
2017-07-01T08:45:08.476Z,20448
2017-07-01T08:46:08.513Z,21056
2017-07-01T08:47:08.567Z,21408
2017-07-01T08:48:08.922Z,20832
2017-07-01T08:49:08.953Z,21280
2017-07-01T08:50:09.324Z,20096
2017-07-01T08:51:08.734Z,20000
2017-07-01T08:52:08.789Z,19744
2017-07-01T08:53:09.129Z,20480
2017-07-01T08:54:08.906Z,22720
2017-07-01T08:55:09.221Z,28192
2017-07-01T08:56:09.267Z,32128
2017-07-01T08:57:09.032Z,38560
2017-07-01T08:58:09.368Z,31680
2017-07-01T08:59:09.085Z,34656
2017-07-01T09:00:09.451Z,34016
2017-07-01T09:01:09.494Z,97952
2017-07-01T09:02:09.243Z,59840
2017-07-01T09:03:09.274Z,46752
2017-07-01T09:04:09.618Z,30464
2017-07-01T09:05:09.368Z,27136
2017-07-01T09:06:09.412Z,28096
2017-07-01T09:07:09.454Z,42880
2017-07-01T09:08:09.814Z,26112
2017-07-01T09:09:09.546Z,30976
2017-07-01T09:10:09.888Z,29312
2017-07-01T09:11:09.624Z,28896
2017-07-01T09:12:09.673Z,29856
2017-07-01T09:13:09.738Z,33440
2017-07-01T09:14:09.774Z,32224
2017-07-01T09:15:09.808Z,56128
2017-07-01T09:16:09.862Z,24672
2017-07-01T09:17:09.900Z,18912
2017-07-01T09:18:09.953Z,17280
2017-07-01T09:19:10.001Z,21664
2017-07-01T09:20:10.356Z,27776
2017-07-01T09:21:10.090Z,33312
2017-07-01T09:22:10.432Z,36576
2017-07-01T09:23:10.817Z,28288
2017-07-01T09:24:10.215Z,25440
2017-07-01T09:25:10.581Z,25280
2017-07-01T09:26:10.315Z,25184
2017-07-01T09:27:10.965Z,21312
2017-07-01T09:28:10.724Z,18656
2017-07-01T09:29:10.749Z,15544
2017-07-01T09:30:10.793Z,13836
2017-07-01T09:31:10.530Z,15700
2017-07-01T09:32:11.207Z,24608
2017-07-01T09:33:10.621Z,16192
2017-07-01T09:34:10.682Z,15700
2017-07-01T09:35:10.710Z,18016
2017-07-01T09:36:10.770Z,14608
2017-07-01T09:37:10.810Z,12604
2017-07-01T09:38:11.163Z,13148
2017-07-01T09:39:10.891Z,18688
2017-07-01T09:40:10.945Z,33152
2017-07-01T09:41:10.988Z,32192
2017-07-01T09:42:11.630Z,24736
2017-07-01T09:43:11.087Z,24256
2017-07-01T09:44:11.123Z,23744
2017-07-01T09:45:11.163Z,28352
2017-07-01T09:46:11.212Z,38208
2017-07-01T09:47:11.552Z,28064
2017-07-01T09:48:11.301Z,23904
2017-07-01T09:49:11.952Z,19648
2017-07-01T09:50:11.390Z,14172
2017-07-01T09:51:11.425Z,12420
2017-07-01T09:52:11.483Z,10532
2017-07-01T09:53:11.830Z,8516
2017-07-01T09:54:11.555Z,7736
2017-07-01T09:55:11.610Z,8536
2017-07-01T09:56:11.658Z,9664
2017-07-01T09:57:12.017Z,8960
2017-07-01T09:58:12.364Z,8768
2017-07-01T09:59:12.407Z,11348
2017-07-01T10:00:11.824Z,14388
2017-07-01T10:01:11.878Z,16404
2017-07-01T10:02:12.832Z,19936
2017-07-01T10:03:11.966Z,17920
2017-07-01T10:04:11.999Z,14084
2017-07-01T10:05:12.052Z,11620
2017-07-01T10:06:12.083Z,10292
2017-07-01T10:07:12.138Z,9228
2017-07-01T10:08:12.492Z,8596
2017-07-01T10:09:12.520Z,8700
2017-07-01T10:10:12.593Z,8556
2017-07-01T10:11:12.621Z,8412
2017-07-01T10:12:12.659Z,9340
2017-07-01T10:13:12.710Z,9956
2017-07-01T10:14:12.772Z,10132
2017-07-01T10:15:12.486Z,10360
2017-07-01T10:16:12.517Z,10968
2017-07-01T10:17:12.895Z,12380
2017-07-01T10:18:12.919Z,13860
2017-07-01T10:19:12.950Z,14576
2017-07-01T10:20:12.694Z,16016
2017-07-01T10:21:13.653Z,19584
2017-07-01T10:22:13.081Z,20352
2017-07-01T10:23:13.125Z,20384
2017-07-01T10:24:13.468Z,18208
2017-07-01T10:25:12.898Z,17088
2017-07-01T10:26:13.256Z,16320
2017-07-01T10:27:13.305Z,14232
2017-07-01T10:28:13.345Z,13540
2017-07-01T10:29:13.388Z,16272
2017-07-01T10:30:13.114Z,16864
2017-07-01T10:31:13.163Z,16284
2017-07-01T10:32:13.821Z,14300
2017-07-01T10:33:13.570Z,11884
2017-07-01T10:34:13.913Z,9392
2017-07-01T10:35:13.635Z,8192
2017-07-01T10:36:13.378Z,11148
2017-07-01T10:37:13.410Z,15284
2017-07-01T10:38:13.779Z,17120
2017-07-01T10:39:13.499Z,15852
2017-07-01T10:40:13.868Z,13864
2017-07-01T10:41:14.214Z,14152
2017-07-01T10:42:13.943Z,18848
2017-07-01T10:43:13.987Z,20256
2017-07-01T10:44:14.052Z,20800
2017-07-01T10:45:13.809Z,21856
2017-07-01T10:46:14.101Z,23296
2017-07-01T10:47:14.161Z,22816
2017-07-01T10:48:14.201Z,23936
2017-07-01T10:49:14.235Z,23808
2017-07-01T10:50:14.286Z,21504
2017-07-01T10:51:14.324Z,19680
2017-07-01T10:52:14.686Z,18976
2017-07-01T10:53:14.111Z,18368
2017-07-01T10:54:14.150Z,18016
2017-07-01T10:55:14.197Z,17728
2017-07-01T10:56:14.236Z,42016
2017-07-01T10:57:14.274Z,32384
2017-07-01T10:58:14.635Z,64480
2017-07-01T10:59:14.987Z,84064
2017-07-01T11:00:15.051Z,52352
2017-07-01T11:01:14.776Z,74112
2017-07-01T11:02:14.511Z,32992
2017-07-01T11:03:14.544Z,21312
2017-07-01T11:04:14.593Z,20800
2017-07-01T11:05:14.969Z,19104
2017-07-01T11:06:14.991Z,17504
2017-07-01T11:07:15.045Z,17152
2017-07-01T11:08:15.085Z,16896
2017-07-01T11:09:14.821Z,13232
2017-07-01T11:10:15.487Z,8980
2017-07-01T11:11:15.836Z,5788
2017-07-01T11:12:14.953Z,3624
2017-07-01T11:13:15.309Z,2636
2017-07-01T11:14:15.339Z,2388
2017-07-01T11:15:15.097Z,3012
2017-07-01T11:16:15.125Z,4032
2017-07-01T11:17:15.175Z,6064
2017-07-01T11:18:15.517Z,11188
2017-07-01T11:19:15.572Z,16960
2017-07-01T11:20:15.298Z,22592
2017-07-01T11:21:15.337Z,24000
2017-07-01T11:22:15.378Z,22496
2017-07-01T11:23:15.436Z,22720
2017-07-01T11:24:15.470Z,24256
2017-07-01T11:25:15.529Z,23520
2017-07-01T11:26:15.883Z,20960
2017-07-01T11:27:15.920Z,17856
2017-07-01T11:28:15.949Z,15400
2017-07-01T11:29:15.999Z,13744
2017-07-01T11:30:16.356Z,11936
2017-07-01T11:31:16.079Z,10628
2017-07-01T11:32:16.122Z,11012
2017-07-01T11:33:16.486Z,12272
2017-07-01T11:34:15.905Z,12720
2017-07-01T11:35:16.580Z,13012
2017-07-01T11:36:16.309Z,15052
2017-07-01T11:37:16.032Z,17120
2017-07-01T11:38:16.398Z,18080
2017-07-01T11:39:16.440Z,18624
2017-07-01T11:40:16.166Z,19552
2017-07-01T11:41:16.822Z,20608
2017-07-01T11:42:16.560Z,21056
2017-07-01T11:43:16.294Z,20576
2017-07-01T11:44:16.657Z,19648
2017-07-01T11:45:16.380Z,17472
2017-07-01T11:46:16.746Z,15384
2017-07-01T11:47:16.783Z,13696
2017-07-01T11:48:16.836Z,12492
2017-07-01T11:49:16.873Z,12088
2017-07-01T11:50:16.911Z,12396
2017-07-01T11:51:16.647Z,12532
2017-07-01T11:52:16.692Z,12724
2017-07-01T11:53:17.352Z,13468
2017-07-01T11:54:16.768Z,15344
2017-07-01T11:55:17.442Z,16896
2017-07-01T11:56:17.162Z,17056
2017-07-01T11:57:16.907Z,17088
2017-07-01T11:58:16.954Z,16896
2017-07-01T11:59:16.997Z,17024
2017-07-01T12:00:17.043Z,17760
2017-07-01T12:01:17.377Z,18624
2017-07-01T12:02:17.438Z,18880
2017-07-01T12:03:17.470Z,17984
2017-07-01T12:04:17.207Z,17440
2017-07-01T12:05:17.253Z,17440
2017-07-01T12:06:17.520Z,17792
2017-07-01T12:07:17.998Z,17856
2017-07-01T12:08:17.701Z,17792
2017-07-01T12:09:17.737Z,17088
2017-07-01T12:10:17.793Z,15996
2017-07-01T12:11:17.829Z,16428
2017-07-01T12:12:17.561Z,17312
2017-07-01T12:13:17.599Z,19328
2017-07-01T12:14:17.636Z,20032
2017-07-01T12:15:18.004Z,20064
2017-07-01T12:16:17.723Z,19680
2017-07-01T12:17:18.378Z,19584
2017-07-01T12:18:18.131Z,19520
2017-07-01T12:19:17.857Z,20032
2017-07-01T12:20:17.911Z,19712
2017-07-01T12:21:18.568Z,18048
2017-07-01T12:22:18.219Z,16088
2017-07-01T12:23:18.644Z,13384
2017-07-01T12:24:18.082Z,11772
2017-07-01T12:25:18.118Z,10444
2017-07-01T12:26:18.478Z,9636
2017-07-01T12:27:18.523Z,8992
2017-07-01T12:28:18.255Z,8076
2017-07-01T12:29:18.290Z,7044
2017-07-01T12:30:18.334Z,6016
2017-07-01T12:31:18.702Z,6000
2017-07-01T12:32:18.463Z,6372
2017-07-01T12:33:18.467Z,5560
2017-07-01T12:34:18.811Z,5344
2017-07-01T12:35:18.860Z,5420
2017-07-01T12:36:18.909Z,5884
2017-07-01T12:37:18.636Z,6928
2017-07-01T12:38:18.997Z,8512
2017-07-01T12:39:18.729Z,10344
2017-07-01T12:40:18.762Z,12208
2017-07-01T12:41:19.123Z,13796
2017-07-01T12:42:18.856Z,12496
2017-07-01T12:43:18.944Z,12204
2017-07-01T12:44:18.942Z,11352
2017-07-01T12:45:18.983Z,12620
2017-07-01T12:46:19.030Z,12792
2017-07-01T12:47:19.387Z,12296
2017-07-01T12:48:19.412Z,12416
2017-07-01T12:49:19.162Z,11724
2017-07-01T12:50:19.202Z,11420
2017-07-01T12:51:19.234Z,13168
2017-07-01T12:52:19.892Z,13468
2017-07-01T12:53:19.343Z,12952
2017-07-01T12:54:19.668Z,12200
2017-07-01T12:55:19.424Z,10684
2017-07-01T12:56:19.757Z,10104
2017-07-01T12:57:19.806Z,11148
2017-07-01T12:58:19.857Z,11580
2017-07-01T12:59:20.203Z,11296
2017-07-01T13:00:20.235Z,11960
2017-07-01T13:01:19.982Z,11560
2017-07-01T13:02:20.030Z,12148
2017-07-01T13:03:19.760Z,11536
2017-07-01T13:04:19.807Z,9924
2017-07-01T13:05:19.847Z,8596
2017-07-01T13:06:20.511Z,8744
2017-07-01T13:07:19.924Z,9756
2017-07-01T13:08:20.287Z,10700
2017-07-01T13:09:20.011Z,10756
2017-07-01T13:10:20.050Z,8720
2017-07-01T13:11:20.715Z,7732
2017-07-01T13:12:20.763Z,7616
2017-07-01T13:13:20.497Z,7428
2017-07-01T13:14:20.528Z,7176
2017-07-01T13:15:20.587Z,8292
2017-07-01T13:16:20.317Z,7968
2017-07-01T13:17:20.968Z,7584
2017-07-01T13:18:20.405Z,7464
2017-07-01T13:19:20.747Z,7800
2017-07-01T13:20:20.792Z,8708
2017-07-01T13:21:20.844Z,9200
2017-07-01T13:22:20.879Z,9168
2017-07-01T13:23:20.617Z,8620